sensor_id;sensor_type;location;lat;lon;timestamp;pressure;altitude;pressure_sealevel;temperature;humidity
60974;BME280;46846;51.528;5.076;2023-01-28T00:00:34;102386.91;;;2.49;77.62
60974;BME280;46846;51.528;5.076;2023-01-28T00:03:00;102389.53;;;2.49;77.97
60974;BME280;46846;51.528;5.076;2023-01-28T00:05:26;102386.88;;;2.48;77.93
60974;BME280;46846;51.528;5.076;2023-01-28T00:07:51;102391.25;;;2.47;78.03
60974;BME280;46846;51.528;5.076;2023-01-28T00:10:17;102398.28;;;2.48;77.60
60974;BME280;46846;51.528;5.076;2023-01-28T00:12:43;102399.88;;;2.43;77.40
60974;BME280;46846;51.528;5.076;2023-01-28T00:15:10;102403.53;;;2.48;77.40
60974;BME280;46846;51.528;5.076;2023-01-28T00:17:36;102400.97;;;2.51;77.39
60974;BME280;46846;51.528;5.076;2023-01-28T00:20:05;102401.00;;;2.53;77.54
60974;BME280;46846;51.528;5.076;2023-01-28T00:22:31;102393.56;;;2.35;78.02
60974;BME280;46846;51.528;5.076;2023-01-28T00:24:56;102399.94;;;2.46;78.01
60974;BME280;46846;51.528;5.076;2023-01-28T00:27:22;102399.84;;;2.40;77.75
60974;BME280;46846;51.528;5.076;2023-01-28T00:29:48;102412.00;;;2.38;78.04
60974;BME280;46846;51.528;5.076;2023-01-28T00:32:13;102407.66;;;2.38;78.23
60974;BME280;46846;51.528;5.076;2023-01-28T00:34:39;102416.56;;;2.43;77.63
60974;BME280;46846;51.528;5.076;2023-01-28T00:37:04;102415.53;;;2.38;77.77
60974;BME280;46846;51.528;5.076;2023-01-28T00:39:30;102411.38;;;2.46;76.90
60974;BME280;46846;51.528;5.076;2023-01-28T00:41:56;102414.03;;;2.48;77.29
60974;BME280;46846;51.528;5.076;2023-01-28T00:44:21;102420.97;;;2.46;77.38
60974;BME280;46846;51.528;5.076;2023-01-28T00:46:46;102414.91;;;2.49;77.52
60974;BME280;46846;51.528;5.076;2023-01-28T00:49:12;102406.13;;;2.46;77.47
60974;BME280;46846;51.528;5.076;2023-01-28T00:51:37;102407.94;;;2.51;76.15
60974;BME280;46846;51.528;5.076;2023-01-28T00:54:03;102413.19;;;2.49;77.13
60974;BME280;46846;51.528;5.076;2023-01-28T00:56:28;102416.66;;;2.48;76.79
60974;BME280;46846;51.528;5.076;2023-01-28T00:58:54;102414.91;;;2.49;76.62
60974;BME280;46846;51.528;5.076;2023-01-28T01:01:24;102424.47;;;2.45;76.92
60974;BME280;46846;51.528;5.076;2023-01-28T01:03:50;102423.53;;;2.43;77.31
60974;BME280;46846;51.528;5.076;2023-01-28T01:06:22;102420.88;;;2.41;76.80
60974;BME280;46846;51.528;5.076;2023-01-28T01:08:48;102424.28;;;2.39;77.18
60974;BME280;46846;51.528;5.076;2023-01-28T01:11:14;102433.13;;;2.41;77.93
60974;BME280;46846;51.528;5.076;2023-01-28T01:13:40;102418.28;;;2.43;77.23
60974;BME280;46846;51.528;5.076;2023-01-28T01:16:13;102424.22;;;2.36;77.63
60974;BME280;46846;51.528;5.076;2023-01-28T01:18:42;102418.22;;;2.40;77.00
60974;BME280;46846;51.528;5.076;2023-01-28T01:21:16;102424.88;;;2.27;77.79
60974;BME280;46846;51.528;5.076;2023-01-28T01:23:42;102411.84;;;2.31;77.61
60974;BME280;46846;51.528;5.076;2023-01-28T01:26:08;102417.16;;;2.33;77.44
60974;BME280;46846;51.528;5.076;2023-01-28T01:28:33;102411.94;;;2.35;77.38
60974;BME280;46846;51.528;5.076;2023-01-28T01:31:00;102414.41;;;2.28;77.34
60974;BME280;46846;51.528;5.076;2023-01-28T01:33:30;102410.94;;;2.29;77.65
60974;BME280;46846;51.528;5.076;2023-01-28T01:35:56;102401.75;;;2.12;78.09
60974;BME280;46846;51.528;5.076;2023-01-28T01:38:21;102403.78;;;2.24;77.91
60974;BME280;46846;51.528;5.076;2023-01-28T01:40:47;102407.28;;;2.23;77.95
60974;BME280;46846;51.528;5.076;2023-01-28T01:43:17;102413.66;;;2.32;76.38
60974;BME280;46846;51.528;5.076;2023-01-28T01:45:43;102410.19;;;2.34;77.38
60974;BME280;46846;51.528;5.076;2023-01-28T01:48:23;102422.38;;;2.31;77.32
60974;BME280;46846;51.528;5.076;2023-01-28T01:50:59;102422.88;;;2.16;78.13
60974;BME280;46846;51.528;5.076;2023-01-28T01:53:27;102421.31;;;2.25;77.89
60974;BME280;46846;51.528;5.076;2023-01-28T01:55:57;102422.34;;;2.30;76.95
60974;BME280;46846;51.528;5.076;2023-01-28T01:58:28;102419.78;;;2.33;76.80
60974;BME280;46846;51.528;5.076;2023-01-28T02:00:55;102421.41;;;2.28;77.75
60974;BME280;46846;51.528;5.076;2023-01-28T02:03:24;102425.69;;;2.24;77.87
60974;BME280;46846;51.528;5.076;2023-01-28T02:05:52;102416.13;;;2.28;77.57
60974;BME280;46846;51.528;5.076;2023-01-28T02:08:17;102419.66;;;2.28;77.09
60974;BME280;46846;51.528;5.076;2023-01-28T02:11:04;102425.50;;;2.16;78.18
60974;BME280;46846;51.528;5.076;2023-01-28T02:13:38;102423.88;;;2.22;78.36
60974;BME280;46846;51.528;5.076;2023-01-28T02:16:06;102430.13;;;2.27;77.68
60974;BME280;46846;51.528;5.076;2023-01-28T02:18:33;102430.19;;;2.28;78.12
60974;BME280;46846;51.528;5.076;2023-01-28T02:29:08;102425.78;;;2.27;77.77
60974;BME280;46846;51.528;5.076;2023-01-28T02:37:00;102418.25;;;2.08;78.69
60974;BME280;46846;51.528;5.076;2023-01-28T02:39:31;102414.09;;;2.16;78.32
60974;BME280;46846;51.528;5.076;2023-01-28T02:42:09;102426.53;;;2.23;77.97
60974;BME280;46846;51.528;5.076;2023-01-28T02:44:37;102418.75;;;2.26;77.90
60974;BME280;46846;51.528;5.076;2023-01-28T02:47:09;102424.59;;;2.16;78.74
60974;BME280;46846;51.528;5.076;2023-01-28T02:49:55;102427.22;;;2.16;78.42
60974;BME280;46846;51.528;5.076;2023-01-28T02:55:46;102429.16;;;2.22;78.25
60974;BME280;46846;51.528;5.076;2023-01-28T02:58:26;102433.56;;;2.24;77.93
60974;BME280;46846;51.528;5.076;2023-01-28T03:03:54;102431.91;;;2.28;77.71
60974;BME280;46846;51.528;5.076;2023-01-28T03:06:22;102428.28;;;2.23;77.92
60974;BME280;46846;51.528;5.076;2023-01-28T03:09:04;102429.25;;;2.26;77.52
60974;BME280;46846;51.528;5.076;2023-01-28T03:12:12;102439.31;;;2.09;78.51
60974;BME280;46846;51.528;5.076;2023-01-28T03:15:09;102433.78;;;1.98;78.81
60974;BME280;46846;51.528;5.076;2023-01-28T03:21:09;102430.41;;;2.02;78.60
60974;BME280;46846;51.528;5.076;2023-01-28T03:23:59;102443.78;;;2.13;78.30
60974;BME280;46846;51.528;5.076;2023-01-28T03:27:08;102440.16;;;2.08;77.35
60974;BME280;46846;51.528;5.076;2023-01-28T03:29:56;102440.16;;;2.08;77.85
60974;BME280;46846;51.528;5.076;2023-01-28T03:32:42;102435.84;;;2.10;78.06
60974;BME280;46846;51.528;5.076;2023-01-28T03:35:29;102437.78;;;2.17;77.96
60974;BME280;46846;51.528;5.076;2023-01-28T03:38:13;102439.44;;;2.14;78.18
60974;BME280;46846;51.528;5.076;2023-01-28T03:40:55;102432.19;;;2.05;78.37
60974;BME280;46846;51.528;5.076;2023-01-28T03:43:21;102434.19;;;2.14;77.96
60974;BME280;46846;51.528;5.076;2023-01-28T03:45:47;102439.25;;;2.08;78.08
60974;BME280;46846;51.528;5.076;2023-01-28T03:48:17;102444.69;;;2.14;78.38
60974;BME280;46846;51.528;5.076;2023-01-28T03:50:43;102448.22;;;2.16;78.19
60974;BME280;46846;51.528;5.076;2023-01-28T03:53:08;102450.84;;;2.14;78.17
60974;BME280;46846;51.528;5.076;2023-01-28T03:55:37;102447.34;;;2.15;78.25
60974;BME280;46846;51.528;5.076;2023-01-28T03:58:03;102449.09;;;2.15;78.21
60974;BME280;46846;51.528;5.076;2023-01-28T04:00:30;102452.63;;;2.15;77.77
60974;BME280;46846;51.528;5.076;2023-01-28T04:02:57;102447.31;;;2.14;78.21
60974;BME280;46846;51.528;5.076;2023-01-28T04:05:22;102457.00;;;2.16;78.48
60974;BME280;46846;51.528;5.076;2023-01-28T04:07:48;102455.31;;;2.18;78.29
60974;BME280;46846;51.528;5.076;2023-01-28T04:10:15;102457.88;;;2.17;78.17
60974;BME280;46846;51.528;5.076;2023-01-28T04:12:41;102458.63;;;2.11;77.97
60974;BME280;46846;51.528;5.076;2023-01-28T04:15:08;102461.34;;;2.16;78.04
60974;BME280;46846;51.528;5.076;2023-01-28T04:17:43;102463.69;;;2.03;78.27
60974;BME280;46846;51.528;5.076;2023-01-28T04:20:10;102460.38;;;2.11;78.48
60974;BME280;46846;51.528;5.076;2023-01-28T04:22:36;102460.38;;;2.12;78.30
60974;BME280;46846;51.528;5.076;2023-01-28T04:25:02;102463.13;;;2.15;78.19
60974;BME280;46846;51.528;5.076;2023-01-28T04:27:27;102454.38;;;2.16;78.14
60974;BME280;46846;51.528;5.076;2023-01-28T04:29:53;102458.66;;;2.13;78.36
60974;BME280;46846;51.528;5.076;2023-01-28T04:32:18;102460.50;;;2.15;78.25
60974;BME280;46846;51.528;5.076;2023-01-28T04:34:44;102456.97;;;2.15;78.07
60974;BME280;46846;51.528;5.076;2023-01-28T04:37:09;102458.72;;;2.16;78.37
60974;BME280;46846;51.528;5.076;2023-01-28T04:39:34;102450.75;;;2.11;78.28
60974;BME280;46846;51.528;5.076;2023-01-28T04:42:00;102448.22;;;2.16;78.11
60974;BME280;46846;51.528;5.076;2023-01-28T04:44:25;102455.06;;;2.09;78.13
60974;BME280;46846;51.528;5.076;2023-01-28T04:46:50;102456.91;;;2.12;78.43
60974;BME280;46846;51.528;5.076;2023-01-28T04:49:16;102460.44;;;2.14;78.03
60974;BME280;46846;51.528;5.076;2023-01-28T04:51:41;102463.06;;;2.14;78.66
60974;BME280;46846;51.528;5.076;2023-01-28T04:54:07;102454.16;;;2.07;78.51
60974;BME280;46846;51.528;5.076;2023-01-28T04:56:32;102457.69;;;2.09;78.09
60974;BME280;46846;51.528;5.076;2023-01-28T04:58:58;102453.19;;;2.03;78.32
60974;BME280;46846;51.528;5.076;2023-01-28T05:01:23;102450.44;;;1.99;78.55
60974;BME280;46846;51.528;5.076;2023-01-28T05:03:49;102460.19;;;2.04;78.64
60974;BME280;46846;51.528;5.076;2023-01-28T05:06:15;102462.78;;;2.03;78.36
60974;BME280;46846;51.528;5.076;2023-01-28T05:08:40;102467.22;;;2.05;78.34
60974;BME280;46846;51.528;5.076;2023-01-28T05:11:06;102473.41;;;2.08;78.44
60974;BME280;46846;51.528;5.076;2023-01-28T05:13:31;102457.47;;;2.01;78.56
60974;BME280;46846;51.528;5.076;2023-01-28T05:15:56;102461.19;;;2.08;78.38
60974;BME280;46846;51.528;5.076;2023-01-28T05:18:22;102469.84;;;2.05;78.22
60974;BME280;46846;51.528;5.076;2023-01-28T05:20:47;102474.31;;;2.08;78.01
60974;BME280;46846;51.528;5.076;2023-01-28T05:23:12;102464.66;;;2.09;78.18
60974;BME280;46846;51.528;5.076;2023-01-28T05:25:38;102457.66;;;2.08;78.21
60974;BME280;46846;51.528;5.076;2023-01-28T05:28:03;102459.28;;;2.04;78.10
60974;BME280;46846;51.528;5.076;2023-01-28T05:30:29;102461.00;;;2.02;78.29
60974;BME280;46846;51.528;5.076;2023-01-28T05:32:55;102458.59;;;2.10;77.96
60974;BME280;46846;51.528;5.076;2023-01-28T05:35:21;102460.38;;;2.11;77.63
60974;BME280;46846;51.528;5.076;2023-01-28T05:37:47;102451.53;;;2.07;77.99
60974;BME280;46846;51.528;5.076;2023-01-28T05:40:12;102460.31;;;2.09;78.15
60974;BME280;46846;51.528;5.076;2023-01-28T05:42:38;102458.59;;;2.10;77.79
60974;BME280;46846;51.528;5.076;2023-01-28T05:45:03;102458.53;;;2.08;77.67
60974;BME280;46846;51.528;5.076;2023-01-28T05:47:29;102456.78;;;2.07;77.97
60974;BME280;46846;51.528;5.076;2023-01-28T05:49:54;102461.97;;;2.05;77.76
60974;BME280;46846;51.528;5.076;2023-01-28T05:52:20;102461.81;;;1.99;78.04
60974;BME280;46846;51.528;5.076;2023-01-28T05:54:45;102460.88;;;1.97;78.44
60974;BME280;46846;51.528;5.076;2023-01-28T05:57:10;102479.25;;;1.97;78.45
60974;BME280;46846;51.528;5.076;2023-01-28T05:59:36;102471.50;;;2.02;77.63
60974;BME280;46846;51.528;5.076;2023-01-28T06:02:01;102472.31;;;1.99;77.74
60974;BME280;46846;51.528;5.076;2023-01-28T06:04:27;102468.03;;;2.03;77.74
60974;BME280;46846;51.528;5.076;2023-01-28T06:06:52;102463.69;;;2.03;77.87
60974;BME280;46846;51.528;5.076;2023-01-28T06:09:17;102467.16;;;2.02;78.11
60974;BME280;46846;51.528;5.076;2023-01-28T06:11:43;102474.06;;;2.00;77.69
60974;BME280;46846;51.528;5.076;2023-01-28T06:14:09;102469.78;;;2.02;78.10
60974;BME280;46846;51.528;5.076;2023-01-28T06:16:35;102461.97;;;2.05;77.78
60974;BME280;46846;51.528;5.076;2023-01-28T06:19:01;102464.59;;;2.05;77.74
60974;BME280;46846;51.528;5.076;2023-01-28T06:21:26;102462.72;;;2.01;77.78
60974;BME280;46846;51.528;5.076;2023-01-28T06:23:52;102464.53;;;2.04;77.50
60974;BME280;46846;51.528;5.076;2023-01-28T06:26:19;102464.59;;;2.05;77.62
60974;BME280;46846;51.528;5.076;2023-01-28T06:28:45;102472.47;;;2.05;77.48
60974;BME280;46846;51.528;5.076;2023-01-28T06:31:10;102474.19;;;2.03;77.41
60974;BME280;46846;51.528;5.076;2023-01-28T06:33:36;102469.78;;;2.04;77.59
60974;BME280;46846;51.528;5.076;2023-01-28T06:36:02;102465.44;;;2.04;77.24
60974;BME280;46846;51.528;5.076;2023-01-28T06:38:28;102482.00;;;2.02;77.20
60974;BME280;46846;51.528;5.076;2023-01-28T06:40:54;102468.88;;;2.02;77.42
60974;BME280;46846;51.528;5.076;2023-01-28T06:43:21;102470.59;;;2.01;77.14
60974;BME280;46846;51.528;5.076;2023-01-28T06:45:52;102483.72;;;2.01;77.42
60974;BME280;46846;51.528;5.076;2023-01-28T06:48:18;102484.56;;;2.00;77.39
60974;BME280;46846;51.528;5.076;2023-01-28T06:50:45;102481.09;;;2.01;77.51
60974;BME280;46846;51.528;5.076;2023-01-28T06:53:11;102484.56;;;2.00;77.81
60974;BME280;46846;51.528;5.076;2023-01-28T06:55:36;102481.09;;;2.01;77.47
60974;BME280;46846;51.528;5.076;2023-01-28T06:58:01;102485.44;;;1.99;77.55
60974;BME280;46846;51.528;5.076;2023-01-28T07:00:27;102488.16;;;2.02;77.37
60974;BME280;46846;51.528;5.076;2023-01-28T07:02:54;102480.28;;;2.02;77.26
60974;BME280;46846;51.528;5.076;2023-01-28T07:05:21;102481.09;;;2.01;77.26
60974;BME280;46846;51.528;5.076;2023-01-28T07:07:46;102481.03;;;1.98;77.23
60974;BME280;46846;51.528;5.076;2023-01-28T07:10:11;102489.75;;;1.97;77.77
60974;BME280;46846;51.528;5.076;2023-01-28T07:12:37;102486.28;;;1.98;77.67
60974;BME280;46846;51.528;5.076;2023-01-28T07:15:03;102490.69;;;1.99;77.41
60974;BME280;46846;51.528;5.076;2023-01-28T07:17:28;102497.59;;;1.96;77.50
60974;BME280;46846;51.528;5.076;2023-01-28T07:19:54;102509.00;;;1.96;77.54
60974;BME280;46846;51.528;5.076;2023-01-28T07:22:19;102501.06;;;1.95;77.85
60974;BME280;46846;51.528;5.076;2023-01-28T07:24:44;102506.38;;;1.96;77.67
60974;BME280;46846;51.528;5.076;2023-01-28T07:27:10;102510.66;;;1.94;77.67
60974;BME280;46846;51.528;5.076;2023-01-28T07:29:35;102506.38;;;1.96;77.22
60974;BME280;46846;51.528;5.076;2023-01-28T07:32:00;102510.72;;;1.96;77.80
60974;BME280;46846;51.528;5.076;2023-01-28T07:34:26;102519.50;;;1.96;78.00
60974;BME280;46846;51.528;5.076;2023-01-28T07:36:51;102518.53;;;1.94;77.90
60974;BME280;46846;51.528;5.076;2023-01-28T07:39:17;102515.97;;;1.96;77.94
60974;BME280;46846;51.528;5.076;2023-01-28T07:41:42;102525.41;;;1.89;77.75
60974;BME280;46846;51.528;5.076;2023-01-28T07:44:08;102522.81;;;1.90;77.78
60974;BME280;46846;51.528;5.076;2023-01-28T07:46:33;102519.19;;;1.87;77.75
60974;BME280;46846;51.528;5.076;2023-01-28T07:48:59;102525.41;;;1.89;76.83
60974;BME280;46846;51.528;5.076;2023-01-28T07:51:24;102523.66;;;1.89;77.62
60974;BME280;46846;51.528;5.076;2023-01-28T07:53:50;102530.66;;;1.89;77.62
60974;BME280;46846;51.528;5.076;2023-01-28T07:56:15;102519.31;;;1.90;77.17
60974;BME280;46846;51.528;5.076;2023-01-28T07:58:41;102517.53;;;1.89;77.55
60974;BME280;46846;51.528;5.076;2023-01-28T08:01:06;102525.41;;;1.89;77.64
60974;BME280;46846;51.528;5.076;2023-01-28T08:03:31;102520.81;;;1.82;77.83
60974;BME280;46846;51.528;5.076;2023-01-28T08:05:57;102522.69;;;1.86;77.93
60974;BME280;46846;51.528;5.076;2023-01-28T08:08:23;102529.44;;;1.77;77.78
60974;BME280;46846;51.528;5.076;2023-01-28T08:10:48;102537.56;;;1.85;77.32
60974;BME280;46846;51.528;5.076;2023-01-28T08:13:15;102546.34;;;1.87;77.32
60974;BME280;46846;51.528;5.076;2023-01-28T08:15:41;102541.09;;;1.87;77.34
60974;BME280;46846;51.528;5.076;2023-01-28T08:18:08;102545.38;;;1.84;77.25
60974;BME280;46846;51.528;5.076;2023-01-28T08:20:34;102545.56;;;1.90;77.27
60974;BME280;46846;51.528;5.076;2023-01-28T08:23:19;102551.53;;;1.86;77.41
60974;BME280;46846;51.528;5.076;2023-01-28T08:25:45;102559.22;;;1.78;77.32
60974;BME280;46846;51.528;5.076;2023-01-28T08:28:11;102574.19;;;1.82;77.46
60974;BME280;46846;51.528;5.076;2023-01-28T08:30:37;102569.91;;;1.84;77.94
60974;BME280;46846;51.528;5.076;2023-01-28T08:33:04;102566.38;;;1.84;77.55
60974;BME280;46846;51.528;5.076;2023-01-28T08:35:31;102569.06;;;1.87;77.73
60974;BME280;46846;51.528;5.076;2023-01-28T08:37:59;102562.09;;;1.87;77.04
60974;BME280;46846;51.528;5.076;2023-01-28T08:40:24;102568.16;;;1.85;76.86
60974;BME280;46846;51.528;5.076;2023-01-28T08:42:50;102572.56;;;1.86;77.36
60974;BME280;46846;51.528;5.076;2023-01-28T08:45:17;102575.16;;;1.84;77.15
60974;BME280;46846;51.528;5.076;2023-01-28T08:48:03;102577.72;;;1.83;77.22
60974;BME280;46846;51.528;5.076;2023-01-28T08:50:32;102577.59;;;1.80;77.08
60974;BME280;46846;51.528;5.076;2023-01-28T08:53:00;102566.16;;;1.76;77.90
60974;BME280;46846;51.528;5.076;2023-01-28T08:55:27;102580.34;;;1.83;76.81
60974;BME280;46846;51.528;5.076;2023-01-28T08:57:53;102581.31;;;1.86;76.47
60974;BME280;46846;51.528;5.076;2023-01-28T09:00:20;102579.41;;;1.81;76.88
60974;BME280;46846;51.528;5.076;2023-01-28T09:02:46;102581.09;;;1.78;77.25
60974;BME280;46846;51.528;5.076;2023-01-28T09:05:12;102589.72;;;1.74;77.05
60974;BME280;46846;51.528;5.076;2023-01-28T09:07:38;102587.19;;;1.77;77.46
60974;BME280;46846;51.528;5.076;2023-01-28T09:10:04;102595.97;;;1.78;77.21
60974;BME280;46846;51.528;5.076;2023-01-28T09:12:30;102598.66;;;1.81;77.42
60974;BME280;46846;51.528;5.076;2023-01-28T09:14:56;102597.81;;;1.82;77.25
60974;BME280;46846;51.528;5.076;2023-01-28T09:17:21;102589.91;;;1.81;77.33
60974;BME280;46846;51.528;5.076;2023-01-28T09:19:47;102589.78;;;1.76;77.63
60974;BME280;46846;51.528;5.076;2023-01-28T09:22:12;102592.25;;;1.71;77.34
60974;BME280;46846;51.528;5.076;2023-01-28T09:24:37;102604.38;;;1.68;77.54
60974;BME280;46846;51.528;5.076;2023-01-28T09:27:03;102608.09;;;1.74;77.41
60974;BME280;46846;51.528;5.076;2023-01-28T09:29:28;102618.78;;;1.81;77.34
60974;BME280;46846;51.528;5.076;2023-01-28T09:31:54;102622.22;;;1.80;77.10
60974;BME280;46846;51.528;5.076;2023-01-28T09:34:19;102630.59;;;1.66;77.56
60974;BME280;46846;51.528;5.076;2023-01-28T09:36:44;102631.81;;;1.77;77.34
60974;BME280;46846;51.528;5.076;2023-01-28T09:39:10;102625.69;;;1.77;76.80
60974;BME280;46846;51.528;5.076;2023-01-28T09:47:02;102638.81;;;1.77;77.13
60974;BME280;46846;51.528;5.076;2023-01-28T09:49:36;102636.19;;;1.78;77.21
60974;BME280;46846;51.528;5.076;2023-01-28T09:52:03;102632.72;;;1.78;77.22
60974;BME280;46846;51.528;5.076;2023-01-28T09:54:44;102648.41;;;1.76;75.84
60974;BME280;46846;51.528;5.076;2023-01-28T09:57:22;102635.34;;;1.80;76.42
60974;BME280;46846;51.528;5.076;2023-01-28T09:59:49;102636.19;;;1.77;76.86
60974;BME280;46846;51.528;5.076;2023-01-28T10:03:12;102642.31;;;1.77;76.34
60974;BME280;46846;51.528;5.076;2023-01-28T10:16:10;102658.97;;;1.50;77.01
60974;BME280;46846;51.528;5.076;2023-01-28T10:19:27;102651.97;;;1.51;76.42
60974;BME280;46846;51.528;5.076;2023-01-28T10:21:47;102655.63;;;1.56;76.58
60974;BME280;46846;51.528;5.076;2023-01-28T10:24:30;102654.66;;;1.53;76.26
60974;BME280;46846;51.528;5.076;2023-01-28T10:26:56;102659.94;;;1.54;77.18
60974;BME280;46846;51.528;5.076;2023-01-28T10:29:24;102663.84;;;1.40;77.29
60974;BME280;46846;51.528;5.076;2023-01-28T10:32:37;102655.69;;;1.58;76.83
60974;BME280;46846;51.528;5.076;2023-01-28T10:35:06;102648.50;;;1.52;76.95
60974;BME280;46846;51.528;5.076;2023-01-28T10:37:36;102654.00;;;1.60;74.76
60974;BME280;46846;51.528;5.076;2023-01-28T10:40:03;102652.72;;;1.47;76.78
60974;BME280;46846;51.528;5.076;2023-01-28T10:42:31;102650.97;;;1.47;75.90
60974;BME280;46846;51.528;5.076;2023-01-28T10:45:02;102650.34;;;1.55;74.92
60974;BME280;46846;51.528;5.076;2023-01-28T10:47:37;102652.88;;;1.52;76.96
60974;BME280;46846;51.528;5.076;2023-01-28T10:52:53;102648.19;;;1.70;75.67
60974;BME280;46846;51.528;5.076;2023-01-28T10:55:19;102628.81;;;1.65;76.21
60974;BME280;46846;51.528;5.076;2023-01-28T10:57:45;102628.16;;;1.72;76.13
60974;BME280;46846;51.528;5.076;2023-01-28T11:00:34;102615.78;;;1.68;76.48
60974;BME280;46846;51.528;5.076;2023-01-28T11:03:01;102615.97;;;1.74;74.40
60974;BME280;46846;51.528;5.076;2023-01-28T11:05:28;102609.03;;;1.76;72.28
60974;BME280;46846;51.528;5.076;2023-01-28T11:08:15;102621.59;;;1.58;73.62
60974;BME280;46846;51.528;5.076;2023-01-28T11:10:42;102618.25;;;1.63;74.47
60974;BME280;46846;51.528;5.076;2023-01-28T11:13:39;102618.25;;;1.63;74.73
60974;BME280;46846;51.528;5.076;2023-01-28T11:16:17;102615.78;;;1.68;73.48
60974;BME280;46846;51.528;5.076;2023-01-28T11:18:50;102620.88;;;1.63;74.80
60974;BME280;46846;51.528;5.076;2023-01-28T11:21:22;102615.53;;;1.60;75.34
60974;BME280;46846;51.528;5.076;2023-01-28T11:23:53;102603.38;;;1.64;72.89
60974;BME280;46846;51.528;5.076;2023-01-28T11:26:38;102590.25;;;1.62;74.84
60974;BME280;46846;51.528;5.076;2023-01-28T11:29:23;102599.94;;;1.65;72.52
60974;BME280;46846;51.528;5.076;2023-01-28T11:31:50;102594.63;;;1.63;74.40
60974;BME280;46846;51.528;5.076;2023-01-28T11:34:18;102592.06;;;1.65;73.98
60974;BME280;46846;51.528;5.076;2023-01-28T11:37:00;102584.09;;;1.62;74.75
60974;BME280;46846;51.528;5.076;2023-01-28T11:39:27;102588.53;;;1.64;74.43
60974;BME280;46846;51.528;5.076;2023-01-28T11:42:02;102585.00;;;1.64;73.83
60974;BME280;46846;51.528;5.076;2023-01-28T11:44:30;102582.16;;;1.56;74.57
60974;BME280;46846;51.528;5.076;2023-01-28T11:52:26;102546.22;;;1.54;70.96
60974;BME280;46846;51.528;5.076;2023-01-28T12:08:28;102511.00;;;1.45;75.27
60974;BME280;46846;51.528;5.076;2023-01-28T12:13:59;102488.00;;;1.36;76.62
60974;BME280;46846;51.528;5.076;2023-01-28T12:17:10;102482.09;;;1.44;75.48
60974;BME280;46846;51.528;5.076;2023-01-28T12:19:48;102487.91;;;1.33;75.17
60974;BME280;46846;51.528;5.076;2023-01-28T12:25:25;102511.78;;;1.43;75.20
60974;BME280;46846;51.528;5.076;2023-01-28T12:28:06;102519.72;;;1.44;76.48
60974;BME280;46846;51.528;5.076;2023-01-28T12:39:33;102528.56;;;1.48;76.90
60974;BME280;46846;51.528;5.076;2023-01-28T12:41:45;102541.88;;;1.54;74.06
60974;BME280;46846;51.528;5.076;2023-01-28T12:44:19;102541.91;;;1.56;74.74
60974;BME280;46846;51.528;5.076;2023-01-28T12:46:50;102548.78;;;1.50;76.36
60974;BME280;46846;51.528;5.076;2023-01-28T12:52:07;102540.97;;;1.54;72.80
60974;BME280;46846;51.528;5.076;2023-01-28T12:54:39;102542.81;;;1.56;74.71
60974;BME280;46846;51.528;5.076;2023-01-28T12:57:15;102542.75;;;1.55;75.84
60974;BME280;46846;51.528;5.076;2023-01-28T13:10:24;102542.03;;;1.60;75.75
60974;BME280;46846;51.528;5.076;2023-01-28T13:12:52;102545.25;;;1.50;76.45
60974;BME280;46846;51.528;5.076;2023-01-28T13:15:18;102535.00;;;1.58;76.14
60974;BME280;46846;51.528;5.076;2023-01-28T13:18:02;102538.59;;;1.61;76.18
60974;BME280;46846;51.528;5.076;2023-01-28T13:20:49;102528.06;;;1.60;76.16
60974;BME280;46846;51.528;5.076;2023-01-28T13:25:53;102521.03;;;1.59;76.75
60974;BME280;46846;51.528;5.076;2023-01-28T13:28:29;102517.50;;;1.58;76.79
60974;BME280;46846;51.528;5.076;2023-01-28T13:38:43;102503.72;;;1.66;76.32
60974;BME280;46846;51.528;5.076;2023-01-28T13:41:09;102500.25;;;1.67;74.80
60974;BME280;46846;51.528;5.076;2023-01-28T13:43:38;102493.34;;;1.70;70.78
60974;BME280;46846;51.528;5.076;2023-01-28T13:46:10;102490.72;;;1.70;72.10
60974;BME280;46846;51.528;5.076;2023-01-28T13:48:48;102471.44;;;1.68;74.07
60974;BME280;46846;51.528;5.076;2023-01-28T13:51:29;102473.94;;;1.63;75.79
60974;BME280;46846;51.528;5.076;2023-01-28T13:54:08;102468.44;;;1.56;76.48
60974;BME280;46846;51.528;5.076;2023-01-28T13:59:28;102458.72;;;1.52;76.94
60974;BME280;46846;51.528;5.076;2023-01-28T14:02:25;102462.34;;;1.57;76.87
60974;BME280;46846;51.528;5.076;2023-01-28T14:08:28;102457.28;;;1.63;76.61
60974;BME280;46846;51.528;5.076;2023-01-28T14:16:23;102479.06;;;1.60;77.48
60974;BME280;46846;51.528;5.076;2023-01-28T14:18:55;102480.03;;;1.62;77.21
60974;BME280;46846;51.528;5.076;2023-01-28T14:21:26;102501.91;;;1.63;76.39
60974;BME280;46846;51.528;5.076;2023-01-28T14:23:54;102506.81;;;1.52;77.18
60974;BME280;46846;51.528;5.076;2023-01-28T14:31:54;102498.22;;;1.56;77.32
60974;BME280;46846;51.528;5.076;2023-01-28T14:34:27;102507.72;;;1.53;77.62
60974;BME280;46846;51.528;5.076;2023-01-28T14:37:00;102493.03;;;1.59;77.69
60974;BME280;46846;51.528;5.076;2023-01-28T14:39:28;102492.25;;;1.62;77.37
60974;BME280;46846;51.528;5.076;2023-01-28T14:41:57;102490.59;;;1.66;77.29
60974;BME280;46846;51.528;5.076;2023-01-28T14:44:38;102498.06;;;1.52;77.81
60974;BME280;46846;51.528;5.076;2023-01-28T14:47:33;102507.72;;;1.53;77.97
60974;BME280;46846;51.528;5.076;2023-01-28T14:52:57;102507.84;;;1.57;77.72
60974;BME280;46846;51.528;5.076;2023-01-28T14:58:28;102516.31;;;1.48;78.14
60974;BME280;46846;51.528;5.076;2023-01-28T15:00:57;102510.56;;;1.60;78.27
60974;BME280;46846;51.528;5.076;2023-01-28T15:03:27;102501.88;;;1.61;77.84
60974;BME280;46846;51.528;5.076;2023-01-28T15:06:12;102494.97;;;1.65;78.02
60974;BME280;46846;51.528;5.076;2023-01-28T15:08:38;102502.75;;;1.62;77.79
60974;BME280;46846;51.528;5.076;2023-01-28T15:11:05;102498.47;;;1.66;77.84
60974;BME280;46846;51.528;5.076;2023-01-28T15:13:38;102481.00;;;1.66;77.56
60974;BME280;46846;51.528;5.076;2023-01-28T15:16:05;102489.94;;;1.73;77.67